San Diego, California
Traffic Map
Current Weather Conditions
San Diego, California
Overcast
Overcast
18°
Feels Like: 18°
Wind Chill: 18° Ceiling: 1000
Heat Index: 18° Visibility: 10mi
Dew Point: 15° Wind: 6mph
Humidity: 81% Direction: 220° (SW)
Pressure: 30in Gusts: 0mph
Raw Report DataKSAN 071251Z 22005KT 10SM OVC010 18/15 A3000 RMK AO2 SLP157 T01830150 $
Traffic Incident Summary
Active as of:
Severity:
Category:
InformationThere was an issue retrieving the traffic information for this location. Please try a different location or try again shortly.
Advertisements
Track Severe Weather on mobile